Time;durP1;ratioP1;P1;durP2;ratioP2;P2;SDS_P1;SDS_P2;PMS_P1;PMS_P2;Temp;Humidity;BMP_temperature;BMP_pressure;BME280_temperature;BME280_humidity;BME280_pressure;Samples;Min_cycle;Max_cycle;Signal;HPM_P1;HPM_P2
2023/06/23 00:02:26;;;;;;;6.90;2.35;;;19.30;99.90;;;;;;5027141;28;20156;-78
2023/06/23 00:05:12;;;;;;;4.78;2.15;;;19.30;99.90;;;;;;5064473;28;20036;-77
2023/06/23 00:07:58;;;;;;;6.07;2.95;;;19.20;99.90;;;;;;5056295;28;20123;-77
2023/06/23 00:10:44;;;;;;;7.20;2.55;;;19.30;99.90;;;;;;5064078;28;20411;-77
2023/06/23 00:13:34;;;;;;;6.57;2.22;;;19.30;99.90;;;;;;5058986;28;20055;-78
2023/06/23 00:16:20;;;;;;;3.92;2.55;;;19.40;99.90;;;;;;5072653;28;20056;-78
2023/06/23 00:19:06;;;;;;;4.32;2.53;;;19.40;99.90;;;;;;5062628;28;20123;-77
2023/06/23 00:21:52;;;;;;;4.75;2.53;;;19.40;99.90;;;;;;5062745;28;20037;-79
2023/06/23 00:24:38;;;;;;;4.30;2.38;;;19.50;99.90;;;;;;5064245;28;20376;-77
2023/06/23 00:27:24;;;;;;;6.80;2.88;;;19.40;99.90;;;;;;5066354;28;20170;-78
2023/06/23 00:30:11;;;;;;;4.38;2.40;;;19.40;99.90;;;;;;5059523;28;20064;-78
2023/06/23 00:32:57;;;;;;;7.38;2.80;;;19.40;99.90;;;;;;5052574;28;20384;-78
2023/06/23 00:35:43;;;;;;;4.45;2.45;;;19.40;99.90;;;;;;5066019;28;20134;-78
2023/06/23 00:38:29;;;;;;;6.18;3.20;;;19.40;99.90;;;;;;5039285;28;20655;-78
2023/06/23 00:41:15;;;;;;;8.27;3.08;;;19.40;99.90;;;;;;5033147;28;20115;-77
2023/06/23 00:44:02;;;;;;;4.85;3.08;;;19.40;99.90;;;;;;5058024;28;20037;-77
2023/06/23 00:46:48;;;;;;;6.78;3.92;;;19.40;99.90;;;;;;5039405;28;20052;-78
2023/06/23 00:49:35;;;;;;;9.05;3.70;;;19.40;99.90;;;;;;5050887;28;20113;-77
2023/06/23 00:52:21;;;;;;;7.55;4.30;;;19.50;99.90;;;;;;5046051;28;20032;-78
2023/06/23 00:55:07;;;;;;;9.05;4.75;;;19.50;99.90;;;;;;5047266;28;20102;-77
2023/06/23 00:57:56;;;;;;;8.15;4.80;;;19.40;99.90;;;;;;5061478;28;20040;-77
2023/06/23 01:00:42;;;;;;;6.50;4.72;;;19.50;99.90;;;;;;5059098;28;20037;-78
2023/06/23 01:03:28;;;;;;;9.60;4.97;;;19.40;99.90;;;;;;5045137;28;20046;-77
2023/06/23 01:06:24;;;;;;;11.50;4.70;;;19.40;99.90;;;;;;5072923;28;20036;-77
2023/06/23 01:09:18;;;;;;;8.73;4.68;;;19.40;99.90;;;;;;5049799;28;20105;-78
2023/06/23 01:12:14;;;;;;;6.05;4.40;;;19.50;99.90;;;;;;5051402;28;20070;-77
2023/06/23 01:15:05;;;;;;;7.60;4.45;;;19.40;99.90;;;;;;5062887;28;20040;-78
2023/06/23 01:17:57;;;;;;;7.18;4.45;;;19.40;99.90;;;;;;5053900;28;20527;-77
2023/06/23 01:20:44;;;;;;;9.65;4.65;;;19.40;99.90;;;;;;5042748;28;20138;-77
2023/06/23 01:24:07;;;;;;;8.93;4.80;;;19.40;99.90;;;;;;5045071;28;20071;-76
2023/06/23 01:27:25;;;;;;;8.10;4.60;;;19.40;99.90;;;;;;5072053;28;20131;-77
2023/06/23 01:30:14;;;;;;;6.90;4.93;;;19.40;99.90;;;;;;5056205;28;20037;-78
2023/06/23 01:33:18;;;;;;;6.63;5.28;;;19.30;99.90;;;;;;5045187;28;20119;-78
2023/06/23 01:36:16;;;;;;;7.72;5.15;;;19.40;99.90;;;;;;5043248;28;20380;-78
2023/06/23 01:39:04;;;;;;;14.98;5.82;;;19.40;99.90;;;;;;5035186;28;20035;-77
2023/06/23 01:41:53;;;;;;;7.80;5.43;;;19.40;99.90;;;;;;5044975;28;20037;-78
2023/06/23 01:44:42;;;;;;;8.05;5.57;;;19.30;99.90;;;;;;5054170;28;20041;-77
2023/06/23 01:47:30;;;;;;;9.00;5.57;;;19.40;99.90;;;;;;5053473;28;20040;-77
2023/06/23 01:50:18;;;;;;;9.88;6.00;;;19.40;99.90;;;;;;5044958;28;20495;-77
2023/06/23 01:53:04;;;;;;;9.43;6.55;;;19.40;99.90;;;;;;5031283;28;20036;-77
2023/06/23 01:55:50;;;;;;;10.35;7.28;;;19.40;99.90;;;;;;5040575;28;20055;-78
2023/06/23 01:58:37;;;;;;;12.23;7.03;;;19.40;99.90;;;;;;5043089;28;20405;-78
2023/06/23 02:01:22;;;;;;;10.55;7.32;;;19.40;99.90;;;;;;5049080;28;20037;-77
2023/06/23 02:04:09;;;;;;;11.35;7.30;;;19.50;99.90;;;;;;5044061;28;20044;-77
2023/06/23 02:06:54;;;;;;;9.52;6.82;;;19.50;99.90;;;;;;5051346;28;20048;-78
2023/06/23 02:09:41;;;;;;;11.30;7.15;;;19.40;99.90;;;;;;5048824;28;20044;-77
2023/06/23 02:12:27;;;;;;;10.70;7.43;;;19.40;99.90;;;;;;5035554;28;20100;-78
2023/06/23 02:15:13;;;;;;;12.00;7.35;;;19.40;99.90;;;;;;5037389;28;20045;-78
2023/06/23 02:17:59;;;;;;;12.20;8.13;;;19.40;99.90;;;;;;5071926;28;20068;-77
2023/06/23 02:20:45;;;;;;;11.55;9.30;;;19.40;99.90;;;;;;5053809;28;20067;-78
2023/06/23 02:23:32;;;;;;;11.20;8.95;;;19.40;99.90;;;;;;5035685;28;20108;-78
2023/06/23 02:26:18;;;;;;;10.98;9.07;;;19.30;99.90;;;;;;5054149;28;20076;-78
2023/06/23 02:29:05;;;;;;;10.15;8.45;;;19.30;99.90;;;;;;5059232;28;20040;-78
2023/06/23 02:31:51;;;;;;;13.80;10.30;;;19.30;99.90;;;;;;5041210;28;20521;-77
2023/06/23 02:34:37;;;;;;;12.20;8.90;;;19.30;99.90;;;;;;5064192;28;20838;-78
2023/06/23 02:37:24;;;;;;;13.20;9.98;;;19.30;99.90;;;;;;5068635;28;20040;-78
2023/06/23 02:40:12;;;;;;;12.40;9.55;;;19.40;99.90;;;;;;5049425;28;20029;-78
2023/06/23 02:43:07;;;;;;;12.23;10.05;;;19.40;99.90;;;;;;5055128;28;20384;-78
2023/06/23 02:45:55;;;;;;;15.80;11.57;;;19.40;99.90;;;;;;5060383;28;20167;-78
2023/06/23 02:48:41;;;;;;;15.45;11.32;;;19.30;99.90;;;;;;5056789;28;20072;-78
2023/06/23 02:51:27;;;;;;;15.10;11.80;;;19.30;99.90;;;;;;5036864;28;20060;-78
2023/06/23 02:54:17;;;;;;;16.48;12.63;;;19.30;99.90;;;;;;5049534;28;20040;-78
2023/06/23 02:57:03;;;;;;;15.13;12.63;;;19.30;99.90;;;;;;5058430;28;20040;-78
2023/06/23 02:59:50;;;;;;;14.30;12.85;;;19.30;99.90;;;;;;5057426;28;20043;-78
2023/06/23 03:02:37;;;;;;;16.60;13.35;;;19.30;99.90;;;;;;5050948;28;20037;-78
2023/06/23 03:05:22;;;;;;;17.15;14.60;;;19.30;99.90;;;;;;5051814;28;20039;-77
2023/06/23 03:08:10;;;;;;;16.63;14.68;;;19.30;99.90;;;;;;5043439;28;20519;-77
2023/06/23 03:10:56;;;;;;;16.70;13.68;;;19.30;99.90;;;;;;5037271;28;20043;-77
2023/06/23 03:13:43;;;;;;;20.65;14.55;;;19.30;99.90;;;;;;5070294;28;20040;-78
2023/06/23 03:16:46;;;;;;;18.13;16.10;;;19.30;99.90;;;;;;5064967;28;20052;-77
2023/06/23 03:19:32;;;;;;;18.77;16.25;;;19.20;99.90;;;;;;5046209;28;20444;-77
2023/06/23 03:22:24;;;;;;;19.40;15.18;;;19.30;99.90;;;;;;5090442;28;20432;-77
2023/06/23 03:25:13;;;;;;;18.13;16.17;;;19.30;99.90;;;;;;5038754;28;20040;-77
2023/06/23 03:28:01;;;;;;;18.35;15.02;;;19.30;99.90;;;;;;5050689;28;20193;-79
2023/06/23 03:30:53;;;;;;;18.50;15.90;;;19.30;99.90;;;;;;5046379;28;20084;-78
2023/06/23 03:33:43;;;;;;;20.10;15.52;;;19.30;99.90;;;;;;5049933;28;20086;-78
2023/06/23 03:36:29;;;;;;;17.38;15.52;;;19.30;99.90;;;;;;5070405;28;20601;-78
2023/06/23 03:39:18;;;;;;;18.45;15.88;;;19.30;99.90;;;;;;5064715;28;20032;-79
2023/06/23 03:42:04;;;;;;;19.10;16.02;;;19.30;99.90;;;;;;5058978;28;20036;-79
2023/06/23 03:44:50;;;;;;;19.40;14.73;;;19.30;99.90;;;;;;5044402;28;20045;-79
2023/06/23 03:47:36;;;;;;;18.00;16.10;;;19.30;99.90;;;;;;5048714;28;20042;-79
2023/06/23 03:50:25;;;;;;;22.67;16.25;;;19.30;99.90;;;;;;5058720;28;20032;-78
2023/06/23 03:53:11;;;;;;;18.65;16.65;;;19.30;99.90;;;;;;5040594;28;20040;-79
2023/06/23 03:55:57;;;;;;;23.40;17.92;;;19.30;99.90;;;;;;5060020;28;20044;-78
2023/06/23 03:58:44;;;;;;;17.83;15.80;;;19.20;99.90;;;;;;5051852;28;20033;-79
2023/06/23 04:01:30;;;;;;;18.58;15.80;;;19.20;99.90;;;;;;5027971;28;20056;-79
2023/06/23 04:04:16;;;;;;;19.45;15.85;;;19.20;99.90;;;;;;5060320;28;20032;-79
2023/06/23 04:07:02;;;;;;;18.65;16.05;;;19.20;99.90;;;;;;5059178;28;20422;-79
2023/06/23 04:09:48;;;;;;;18.00;15.23;;;19.10;99.90;;;;;;5041611;28;20505;-79
2023/06/23 04:12:34;;;;;;;19.98;17.52;;;19.10;99.90;;;;;;5060358;28;20083;-78
2023/06/23 04:15:22;;;;;;;18.27;15.30;;;19.10;99.90;;;;;;5048851;28;20127;-79
2023/06/23 04:18:08;;;;;;;20.88;15.63;;;19.10;99.90;;;;;;5061895;28;20036;-77
2023/06/23 04:20:54;;;;;;;22.08;17.98;;;19.10;99.90;;;;;;5069554;28;20040;-77
2023/06/23 04:23:40;;;;;;;21.38;16.50;;;19.10;99.90;;;;;;5072651;28;20123;-78
2023/06/23 04:26:26;;;;;;;20.58;17.23;;;19.10;99.90;;;;;;5050935;28;20591;-79
2023/06/23 04:29:12;;;;;;;20.45;14.98;;;19.00;99.90;;;;;;5068383;28;20040;-79
2023/06/23 04:31:58;;;;;;;20.65;16.40;;;19.00;99.90;;;;;;5051936;28;20048;-78
2023/06/23 04:34:44;;;;;;;17.95;15.98;;;19.00;99.90;;;;;;5061241;28;20066;-78
2023/06/23 04:37:31;;;;;;;18.83;15.27;;;19.10;99.90;;;;;;5062125;28;20070;-79
2023/06/23 04:40:29;;;;;;;18.80;15.30;;;19.10;99.90;;;;;;5050048;28;20052;-78
2023/06/23 04:43:20;;;;;;;17.40;14.80;;;19.00;99.90;;;;;;5063153;28;20040;-79
2023/06/23 04:46:14;;;;;;;19.00;15.02;;;19.00;99.90;;;;;;5052985;28;20156;-78
2023/06/23 04:49:02;;;;;;;19.30;15.18;;;19.00;99.90;;;;;;5054452;28;20071;-78
2023/06/23 04:51:49;;;;;;;22.10;17.50;;;18.90;99.90;;;;;;5054477;28;20054;-78
2023/06/23 04:54:40;;;;;;;18.23;14.57;;;18.90;99.90;;;;;;5039198;28;20041;-77
2023/06/23 04:57:28;;;;;;;20.73;15.50;;;18.90;99.90;;;;;;5052331;28;20044;-78
2023/06/23 05:00:17;;;;;;;19.73;14.65;;;19.00;99.90;;;;;;5036490;28;20032;-78
2023/06/23 05:03:03;;;;;;;21.35;16.15;;;19.00;99.90;;;;;;5052136;28;20635;-78
2023/06/23 05:05:51;;;;;;;18.40;15.38;;;19.00;99.90;;;;;;5052308;28;20119;-77
2023/06/23 05:08:37;;;;;;;18.65;14.25;;;18.90;99.90;;;;;;5038440;28;20049;-78
2023/06/23 05:11:23;;;;;;;18.13;15.43;;;18.90;99.90;;;;;;5038463;28;20450;-77
2023/06/23 05:14:09;;;;;;;23.08;14.77;;;18.90;99.90;;;;;;5034823;28;20060;-76
2023/06/23 05:16:57;;;;;;;19.15;14.32;;;18.90;99.90;;;;;;5038237;28;20441;-77
2023/06/23 05:19:44;;;;;;;16.88;13.63;;;18.90;99.90;;;;;;5038883;28;20123;-77
2023/06/23 05:22:30;;;;;;;17.43;12.07;;;18.80;99.90;;;;;;5037408;28;20523;-78
2023/06/23 05:25:18;;;;;;;14.40;11.23;;;18.80;99.90;;;;;;5025143;28;20134;-77
2023/06/23 05:28:04;;;;;;;12.80;10.93;;;18.80;99.90;;;;;;5038587;28;20041;-76
2023/06/23 05:30:50;;;;;;;11.32;8.93;;;18.80;99.90;;;;;;5047796;28;20040;-78
2023/06/23 05:33:37;;;;;;;12.80;9.55;;;18.70;99.90;;;;;;5037209;28;20067;-77
2023/06/23 05:36:23;;;;;;;12.23;9.60;;;18.70;99.90;;;;;;5037491;28;20118;-76
2023/06/23 05:39:09;;;;;;;12.43;9.18;;;18.70;99.90;;;;;;5033731;28;20717;-76
2023/06/23 05:41:55;;;;;;;9.63;7.78;;;18.60;99.90;;;;;;5035570;28;20095;-77
2023/06/23 05:44:41;;;;;;;12.68;9.10;;;18.60;99.90;;;;;;5028372;28;20383;-77
2023/06/23 05:47:44;;;;;;;10.25;8.20;;;18.60;99.90;;;;;;5044319;28;20083;-77
2023/06/23 05:50:34;;;;;;;10.55;8.60;;;18.60;99.90;;;;;;5054251;28;20041;-76
2023/06/23 05:53:20;;;;;;;10.25;7.72;;;18.60;99.90;;;;;;5031154;28;20032;-75
2023/06/23 05:56:18;;;;;;;14.30;7.88;;;18.60;99.90;;;;;;5041453;28;20048;-76
2023/06/23 05:59:06;;;;;;;8.98;7.50;;;18.50;99.90;;;;;;5048400;28;20029;-76
2023/06/23 06:01:57;;;;;;;7.03;6.22;;;18.50;99.90;;;;;;5032848;28;20072;-76
2023/06/23 06:04:43;;;;;;;7.53;6.72;;;18.50;99.90;;;;;;5058600;28;20119;-76
2023/06/23 06:07:29;;;;;;;6.70;5.95;;;18.50;99.90;;;;;;5051582;28;20048;-75
2023/06/23 06:10:16;;;;;;;7.15;6.18;;;18.50;99.90;;;;;;5074781;28;20131;-76
2023/06/23 06:13:02;;;;;;;9.95;6.07;;;18.40;99.90;;;;;;5054458;28;20090;-77
2023/06/23 06:15:48;;;;;;;9.68;6.97;;;18.40;99.90;;;;;;5047689;28;20051;-77
2023/06/23 06:18:34;;;;;;;7.38;5.95;;;18.40;99.90;;;;;;5057141;28;20036;-77
2023/06/23 06:21:21;;;;;;;9.05;6.38;;;18.30;99.90;;;;;;5047809;28;20044;-77
2023/06/23 06:24:08;;;;;;;8.30;5.70;;;18.30;99.90;;;;;;5059170;28;20071;-78
2023/06/23 06:26:56;;;;;;;7.68;5.20;;;18.30;99.90;;;;;;5041854;28;20044;-77
2023/06/23 06:29:42;;;;;;;6.25;5.10;;;18.30;99.90;;;;;;5057608;28;20043;-77
2023/06/23 06:32:29;;;;;;;6.57;4.88;;;18.30;99.90;;;;;;5061329;28;20040;-78
2023/06/23 06:35:15;;;;;;;7.60;4.82;;;18.20;99.90;;;;;;5052686;28;20037;-78
2023/06/23 06:38:01;;;;;;;8.38;4.53;;;18.30;99.90;;;;;;5055335;28;20036;-77
2023/06/23 06:40:49;;;;;;;5.70;4.93;;;18.30;99.90;;;;;;5042430;28;20052;-77
2023/06/23 06:43:35;;;;;;;5.40;4.03;;;18.30;99.90;;;;;;5059320;28;20032;-77
2023/06/23 06:46:21;;;;;;;6.07;4.13;;;18.30;99.90;;;;;;5067114;28;20083;-76
2023/06/23 06:49:07;;;;;;;6.72;4.03;;;18.30;99.90;;;;;;5070327;28;20044;-76
2023/06/23 06:51:53;;;;;;;7.07;4.13;;;18.00;99.90;;;;;;5050743;28;20058;-76
2023/06/23 06:54:39;;;;;;;4.60;3.58;;;18.00;99.90;;;;;;5041814;28;20042;-76
2023/06/23 06:57:25;;;;;;;6.40;3.90;;;18.10;99.90;;;;;;5057212;28;20062;-77
2023/06/23 07:00:12;;;;;;;6.63;4.60;;;18.10;99.90;;;;;;5062880;28;20075;-78
2023/06/23 07:02:58;;;;;;;3.70;3.30;;;17.80;99.90;;;;;;5048545;28;20482;-77
2023/06/23 07:05:44;;;;;;;5.75;3.42;;;17.70;99.90;;;;;;5050595;28;20048;-77
2023/06/23 07:08:30;;;;;;;4.72;3.03;;;17.70;99.90;;;;;;5061135;28;20044;-77
2023/06/23 07:11:16;;;;;;;4.55;2.90;;;17.70;99.90;;;;;;5054183;28;20940;-77
2023/06/23 07:14:03;;;;;;;5.75;3.83;;;17.60;99.90;;;;;;5056312;28;20113;-77
2023/06/23 07:16:49;;;;;;;5.37;3.80;;;17.40;99.90;;;;;;5056942;28;20037;-77
2023/06/23 07:19:37;;;;;;;5.70;3.65;;;17.20;99.90;;;;;;5056535;28;20628;-77
2023/06/23 07:22:23;;;;;;;5.97;4.22;;;17.20;99.90;;;;;;5061291;28;20043;-77
2023/06/23 07:25:10;;;;;;;5.05;3.35;;;17.10;99.90;;;;;;5047087;28;20032;-77
2023/06/23 07:27:55;;;;;;;6.82;3.88;;;17.10;99.90;;;;;;5043219;28;20043;-77
2023/06/23 07:30:41;;;;;;;6.30;3.70;;;17.00;99.90;;;;;;5061543;28;20040;-75
2023/06/23 07:33:28;;;;;;;5.05;3.35;;;16.90;99.90;;;;;;5058272;28;20071;-81
2023/06/23 07:36:13;;;;;;;5.63;3.50;;;17.00;99.90;;;;;;5050103;28;20052;-81
2023/06/23 07:38:59;;;;;;;4.47;3.10;;;17.20;99.90;;;;;;5044667;28;20041;-79
2023/06/23 07:41:46;;;;;;;7.75;3.30;;;17.20;99.90;;;;;;5061943;28;20012;-81
2023/06/23 07:44:32;;;;;;;4.93;2.60;;;17.30;99.90;;;;;;5068175;28;20035;-82
2023/06/23 07:47:18;;;;;;;6.32;3.03;;;17.30;99.90;;;;;;5036179;28;20045;-81
2023/06/23 07:50:05;;;;;;;6.80;3.28;;;17.30;99.90;;;;;;5054263;28;20062;-81
2023/06/23 07:52:54;;;;;;;4.90;2.95;;;17.30;99.90;;;;;;5056571;28;20028;-80
2023/06/23 07:55:40;;;;;;;5.40;3.50;;;17.30;99.90;;;;;;5057146;28;20068;-80
2023/06/23 07:58:26;;;;;;;5.55;3.22;;;17.40;99.90;;;;;;5059606;28;20043;-81
2023/06/23 08:01:12;;;;;;;6.15;2.78;;;17.30;99.90;;;;;;5057425;28;20123;-81
2023/06/23 08:03:58;;;;;;;4.43;2.78;;;17.40;99.90;;;;;;5055447;28;20500;-80
2023/06/23 08:06:44;;;;;;;5.68;3.22;;;17.50;99.90;;;;;;5057111;28;20044;-81
2023/06/23 08:09:30;;;;;;;5.30;2.63;;;17.50;99.90;;;;;;5038429;28;20166;-81
2023/06/23 08:12:16;;;;;;;6.15;2.58;;;17.50;99.90;;;;;;5055152;28;20051;-81
2023/06/23 08:15:02;;;;;;;5.35;2.90;;;17.40;99.90;;;;;;5068772;28;20044;-80
2023/06/23 08:17:48;;;;;;;4.32;3.00;;;17.50;99.90;;;;;;5038980;28;20094;-82
2023/06/23 08:20:37;;;;;;;6.90;3.35;;;17.40;99.90;;;;;;5046721;28;20040;-81
2023/06/23 08:23:23;;;;;;;11.75;3.63;;;17.50;99.90;;;;;;5068378;28;20047;-81
2023/06/23 08:26:10;;;;;;;4.25;3.55;;;17.40;99.90;;;;;;5054777;28;20040;-80
2023/06/23 08:28:56;;;;;;;5.00;4.32;;;17.50;99.90;;;;;;5068117;28;20488;-80
2023/06/23 08:31:42;;;;;;;7.32;4.30;;;17.50;99.90;;;;;;5060272;28;20083;-80
2023/06/23 08:34:28;;;;;;;6.20;3.60;;;17.60;99.90;;;;;;5063937;28;20048;-80
2023/06/23 08:37:14;;;;;;;5.22;3.70;;;17.70;99.90;;;;;;5066408;28;20039;-79
2023/06/23 08:40:00;;;;;;;5.75;3.85;;;17.60;99.90;;;;;;5071750;28;20032;-81
2023/06/23 08:42:46;;;;;;;4.93;4.05;;;17.70;99.90;;;;;;5065479;28;20085;-81
2023/06/23 08:54:21;;;;;;;4.53;3.63;;;17.50;99.90;;;;;;5979040;22;20990;-84
2023/06/23 08:57:11;;;;;;;6.50;3.63;;;17.80;99.90;;;;;;5058119;28;20030;-82
2023/06/23 09:55:09;;;;;;;;;;;;;;;;;;;;;
2023/06/23 10:15:42;;;;;;;7.13;4.70;;;17.60;99.90;;;;;;6067907;23;20054;-79
2023/06/23 10:33:34;;;;;;;6.80;5.10;;;17.50;99.90;;;;;;5245738;23;20040;-80
2023/06/23 10:36:34;;;;;;;7.20;5.20;;;17.40;99.90;;;;;;4962244;28;20111;-80
2023/06/23 10:39:22;;;;;;;7.82;5.25;;;17.20;99.90;;;;;;4961683;28;20067;-80
2023/06/23 10:42:13;;;;;;;7.78;5.50;;;17.10;99.90;;;;;;4936306;28;20039;-79
2023/06/23 10:45:01;;;;;;;7.70;5.70;;;17.10;99.90;;;;;;4945240;28;20043;-79
2023/06/23 10:47:55;;;;;;;10.25;6.60;;;16.70;99.90;;;;;;4941338;28;20048;-81
2023/06/23 10:50:54;;;;;;;8.20;5.75;;;16.50;99.90;;;;;;4952713;28;20034;-80
2023/06/23 10:57:29;;;;;;;9.63;5.45;;;16.90;99.90;;;;;;4932070;28;20032;-81
2023/06/23 11:00:38;;;;;;;8.07;6.88;;;16.80;99.90;;;;;;4939959;28;20028;-81
2023/06/23 11:03:38;;;;;;;7.35;5.65;;;16.90;99.90;;;;;;4943926;28;20024;-81
2023/06/23 11:06:47;;;;;;;9.52;6.75;;;17.00;99.90;;;;;;4932297;28;20029;-83
2023/06/23 11:10:01;;;;;;;7.82;6.60;;;16.90;99.90;;;;;;4934462;28;20087;-83
2023/06/23 13:01:47;;;;;;;12.27;9.40;;;18.50;99.90;;;;;;4942396;29;20019;-83
2023/06/23 13:12:18;;;;;;;12.82;9.85;;;18.40;99.90;;;;;;5281716;23;20055;-82
2023/06/23 13:15:37;;;;;;;10.75;8.82;;;18.40;99.90;;;;;;4959114;28;20020;-81
2023/06/23 13:21:10;;;;;;;11.27;9.48;;;18.50;99.90;;;;;;5022208;23;20043;-84
2023/06/23 13:24:05;;;;;;;11.38;9.68;;;18.50;99.90;;;;;;4945715;28;20016;-80
2023/06/23 13:26:52;;;;;;;13.55;10.05;;;18.50;99.90;;;;;;4944820;28;20342;-80
2023/06/23 13:29:38;;;;;;;12.32;10.43;;;18.30;99.90;;;;;;4922443;29;20484;-80
2023/06/23 13:32:24;;;;;;;12.93;10.88;;;18.40;99.90;;;;;;4932632;29;20099;-81
2023/06/23 13:35:10;;;;;;;15.02;12.13;;;18.40;99.90;;;;;;4926353;29;20028;-81
2023/06/23 13:37:57;;;;;;;12.82;9.95;;;18.40;99.90;;;;;;4908743;29;20047;-80
2023/06/23 13:40:46;;;;;;;10.45;9.35;;;18.40;99.90;;;;;;4922865;29;20046;-81
2023/06/23 13:43:32;;;;;;;11.10;9.85;;;18.50;99.90;;;;;;4915150;29;20599;-81
2023/06/23 13:46:18;;;;;;;15.15;11.20;;;18.60;99.90;;;;;;4945179;28;20061;-81
2023/06/23 13:49:05;;;;;;;14.02;10.25;;;18.50;99.90;;;;;;4917790;29;20051;-81
2023/06/23 13:51:51;;;;;;;14.80;11.07;;;18.60;99.90;;;;;;4955935;29;20042;-81
2023/06/23 13:54:37;;;;;;;12.50;9.40;;;18.60;99.90;;;;;;4927747;29;20051;-81
2023/06/23 13:57:23;;;;;;;12.48;10.70;;;18.50;99.90;;;;;;4933269;29;20051;-81
2023/06/23 14:00:10;;;;;;;13.13;11.73;;;18.60;99.90;;;;;;4944886;29;20032;-80
2023/06/23 14:02:56;;;;;;;14.90;11.88;;;18.60;99.90;;;;;;4920955;29;20039;-81
2023/06/23 14:05:42;;;;;;;11.68;9.38;;;18.50;99.90;;;;;;4930208;29;20499;-81
2023/06/23 14:08:30;;;;;;;14.13;12.38;;;18.50;99.90;;;;;;4934471;29;20047;-81
2023/06/23 14:11:16;;;;;;;17.75;12.40;;;18.50;99.90;;;;;;4924156;29;20039;-81
2023/06/23 14:14:02;;;;;;;17.85;14.20;;;18.50;99.90;;;;;;4908668;28;20044;-81
2023/06/23 14:16:48;;;;;;;13.18;11.32;;;18.40;99.90;;;;;;4937692;29;20027;-81
2023/06/23 14:19:34;;;;;;;15.00;11.95;;;18.40;99.90;;;;;;4926810;29;20047;-82
2023/06/23 14:22:20;;;;;;;17.05;13.68;;;18.60;99.90;;;;;;4906450;29;20059;-80
2023/06/23 14:25:08;;;;;;;18.63;15.98;;;18.60;99.90;;;;;;4947160;28;20048;-84
2023/06/23 14:27:54;;;;;;;20.17;15.30;;;18.50;99.90;;;;;;4945712;28;20477;-79
2023/06/23 14:30:41;;;;;;;17.45;15.55;;;18.40;99.90;;;;;;4940568;29;20122;-79
2023/06/23 14:33:27;;;;;;;20.90;16.77;;;18.30;99.90;;;;;;4899549;29;20051;-79
2023/06/23 14:36:12;;;;;;;22.00;17.40;;;18.40;99.90;;;;;;4909264;29;20048;-80
2023/06/23 14:38:58;;;;;;;21.02;17.40;;;18.40;99.90;;;;;;4923067;29;20044;-80
2023/06/23 14:41:45;;;;;;;24.00;20.35;;;18.40;99.90;;;;;;4914063;29;20127;-80
2023/06/23 14:44:31;;;;;;;24.48;19.73;;;18.30;99.90;;;;;;4903155;29;20058;-81
2023/06/23 14:47:17;;;;;;;22.08;18.83;;;18.30;99.90;;;;;;4921476;29;20043;-81
2023/06/23 14:50:06;;;;;;;25.23;19.83;;;18.30;99.90;;;;;;4916078;29;20114;-80
2023/06/23 14:52:52;;;;;;;21.95;19.42;;;18.30;99.90;;;;;;4905452;29;20118;-81
2023/06/23 14:55:39;;;;;;;26.33;22.05;;;18.40;99.90;;;;;;4915013;29;20040;-81
2023/06/23 14:58:27;;;;;;;24.98;21.25;;;18.40;99.90;;;;;;4914041;29;20187;-81
2023/06/23 15:01:13;;;;;;;24.45;19.75;;;18.40;99.90;;;;;;4910249;29;20040;-80
2023/06/23 15:03:59;;;;;;;25.85;21.38;;;18.40;99.90;;;;;;4926239;29;20043;-80
2023/06/23 15:06:46;;;;;;;29.67;21.67;;;18.30;99.90;;;;;;4939963;29;20130;-80
2023/06/23 15:09:32;;;;;;;27.33;21.70;;;18.40;99.90;;;;;;4918378;29;20504;-80
2023/06/23 15:12:20;;;;;;;27.35;23.42;;;18.50;99.90;;;;;;4926917;29;20103;-80
2023/06/23 15:15:07;;;;;;;34.53;23.88;;;18.50;99.90;;;;;;4935706;29;20418;-80
2023/06/23 15:17:53;;;;;;;32.78;24.05;;;18.50;99.90;;;;;;4903216;29;20459;-79
2023/06/23 15:20:45;;;;;;;27.00;22.27;;;18.50;99.90;;;;;;4898403;29;20133;-80
2023/06/23 15:23:31;;;;;;;29.65;23.75;;;18.50;99.90;;;;;;4938908;29;20051;-81
2023/06/23 15:26:17;;;;;;;20.35;16.67;;;18.50;99.90;;;;;;4912702;29;20102;-83
2023/06/23 15:29:05;;;;;;;23.83;18.13;;;18.60;99.90;;;;;;4919403;29;20114;-83
2023/06/23 15:31:51;;;;;;;19.77;17.17;;;18.80;99.90;;;;;;4909939;29;20361;-82
2023/06/23 15:34:37;;;;;;;21.85;17.38;;;18.80;99.90;;;;;;4897816;29;20048;-82
2023/06/23 15:37:23;;;;;;;25.13;22.08;;;18.90;99.90;;;;;;4911063;29;20040;-81
2023/06/23 15:40:13;;;;;;;28.30;22.40;;;18.90;99.90;;;;;;4920332;29;20036;-82
2023/06/23 15:42:58;;;;;;;24.88;20.55;;;19.00;99.90;;;;;;4923800;29;20068;-82
2023/06/23 15:45:45;;;;;;;18.33;16.33;;;19.00;99.90;;;;;;4936274;29;20047;-81
2023/06/23 15:48:31;;;;;;;24.42;20.55;;;19.10;99.90;;;;;;4899330;29;20043;-82
2023/06/23 15:51:17;;;;;;;25.95;17.40;;;19.20;99.90;;;;;;4927279;29;20051;-82
2023/06/23 15:54:03;;;;;;;22.27;17.83;;;19.20;99.90;;;;;;4909155;29;20039;-81
2023/06/23 15:56:49;;;;;;;22.60;18.10;;;19.20;99.90;;;;;;4908957;29;20054;-84
2023/06/23 15:59:35;;;;;;;25.55;19.48;;;19.30;99.90;;;;;;4915936;29;20067;-83
2023/06/23 16:02:25;;;;;;;20.98;16.88;;;19.40;99.90;;;;;;4907872;29;20040;-82
2023/06/23 16:05:11;;;;;;;18.40;16.33;;;19.40;99.90;;;;;;4931097;29;20140;-84
2023/06/23 16:07:57;;;;;;;24.27;19.27;;;19.50;99.90;;;;;;4911294;29;20059;-85
2023/06/23 16:10:43;;;;;;;24.33;21.45;;;19.50;99.90;;;;;;4927112;29;20259;-83
2023/06/23 16:13:30;;;;;;;22.58;19.13;;;19.50;99.90;;;;;;4897310;29;20381;-82
2023/06/23 16:16:18;;;;;;;23.05;18.42;;;19.60;99.90;;;;;;4942596;29;20675;-83
2023/06/23 16:19:04;;;;;;;19.55;16.65;;;19.60;99.90;;;;;;4923629;29;20245;-83
2023/06/23 16:21:50;;;;;;;20.73;17.45;;;19.60;99.90;;;;;;4912549;29;20079;-84
2023/06/23 16:24:36;;;;;;;20.63;17.85;;;19.70;99.90;;;;;;4911836;29;20805;-84
2023/06/23 16:27:22;;;;;;;21.77;16.70;;;19.80;99.90;;;;;;4913359;29;20040;-85
2023/06/23 16:30:08;;;;;;;22.58;18.55;;;19.90;99.90;;;;;;4908526;29;20039;-83
2023/06/23 16:32:54;;;;;;;18.83;15.05;;;20.00;99.90;;;;;;4949966;29;20118;-83
2023/06/23 16:35:40;;;;;;;20.50;17.67;;;20.10;99.90;;;;;;4907579;29;20377;-84
2023/06/23 16:38:26;;;;;;;19.20;15.32;;;20.20;99.90;;;;;;4912959;29;20048;-84
2023/06/23 16:41:12;;;;;;;17.33;14.00;;;20.30;99.90;;;;;;4912009;29;20035;-84
2023/06/23 16:43:58;;;;;;;17.58;14.32;;;20.30;99.90;;;;;;4912032;29;20075;-84
2023/06/23 16:46:44;;;;;;;13.90;11.70;;;20.30;99.90;;;;;;4911779;29;20051;-84
2023/06/23 16:49:31;;;;;;;18.17;11.20;;;20.30;99.90;;;;;;4904299;29;20060;-83
2023/06/23 16:52:17;;;;;;;14.80;12.57;;;20.40;99.90;;;;;;4921762;29;20384;-83
2023/06/23 16:55:04;;;;;;;16.98;12.50;;;20.40;99.90;;;;;;4904417;29;20157;-85
2023/06/23 16:57:50;;;;;;;15.00;11.50;;;20.40;99.90;;;;;;4908763;29;20105;-79
2023/06/23 17:00:37;;;;;;;15.93;11.65;;;20.40;99.90;;;;;;4911673;29;20075;-80
2023/06/23 17:03:23;;;;;;;13.00;10.60;;;20.50;99.90;;;;;;4905060;29;20050;-81
2023/06/23 17:06:09;;;;;;;12.88;10.93;;;20.50;99.90;;;;;;4901439;29;20047;-80
2023/06/23 17:08:54;;;;;;;11.68;10.23;;;20.30;99.90;;;;;;4897800;29;20042;-80
2023/06/23 17:11:40;;;;;;;13.98;10.82;;;20.40;99.90;;;;;;4914250;29;20520;-81
2023/06/23 17:14:26;;;;;;;11.40;9.07;;;20.40;99.90;;;;;;4935491;29;20039;-80
2023/06/23 17:17:12;;;;;;;13.60;9.23;;;20.40;99.90;;;;;;4930846;29;20051;-80
2023/06/23 17:19:58;;;;;;;12.48;9.85;;;20.30;99.90;;;;;;4908900;29;20079;-81
2023/06/23 17:22:44;;;;;;;10.88;9.63;;;20.30;99.90;;;;;;4896591;29;20414;-80
2023/06/23 17:25:31;;;;;;;15.23;9.00;;;20.30;99.90;;;;;;4918752;29;20098;-82
2023/06/23 17:28:17;;;;;;;9.50;8.27;;;20.30;99.90;;;;;;4896021;29;20039;-81
2023/06/23 17:31:03;;;;;;;12.57;7.95;;;20.20;99.90;;;;;;4918477;29;20043;-81
2023/06/23 17:33:49;;;;;;;12.23;8.57;;;20.20;99.90;;;;;;4903351;29;20040;-82
2023/06/23 17:36:35;;;;;;;9.57;8.32;;;20.30;99.90;;;;;;4925383;29;20054;-82
2023/06/23 17:39:21;;;;;;;9.70;8.18;;;20.30;99.90;;;;;;4908041;29;20360;-82
2023/06/23 17:42:09;;;;;;;10.75;8.15;;;20.30;99.90;;;;;;4901184;29;20043;-82
2023/06/23 17:44:55;;;;;;;14.48;9.60;;;20.30;99.90;;;;;;4914159;29;20043;-82
2023/06/23 17:47:41;;;;;;;12.05;9.40;;;20.30;99.90;;;;;;4899096;29;20729;-82
2023/06/23 17:50:27;;;;;;;11.13;8.27;;;20.40;99.90;;;;;;4906930;29;20124;-83
2023/06/23 17:53:13;;;;;;;10.00;8.02;;;20.30;99.90;;;;;;4921687;29;20044;-82
2023/06/23 17:56:00;;;;;;;12.23;7.95;;;20.40;99.90;;;;;;4918143;29;20062;-84
2023/06/23 17:58:45;;;;;;;10.35;8.48;;;20.40;99.90;;;;;;4907416;29;20036;-83
2023/06/23 18:01:31;;;;;;;13.10;8.73;;;20.40;99.90;;;;;;4919484;29;20182;-82
2023/06/23 18:04:17;;;;;;;10.32;7.78;;;20.40;99.90;;;;;;4925299;29;20118;-81